sensor_id;sensor_type;location;lat;lon;timestamp;pressure;altitude;pressure_sealevel;temperature;humidity
69257;BME280;56376;53.356;-1.748;2023-04-08T00:01:35;100326.41;;;5.49;79.88
69257;BME280;56376;53.356;-1.748;2023-04-08T00:04:00;100335.97;;;5.42;80.62
69257;BME280;56376;53.356;-1.748;2023-04-08T00:06:27;100329.06;;;5.34;80.32
69257;BME280;56376;53.356;-1.748;2023-04-08T00:08:52;100325.59;;;5.33;80.30
69257;BME280;56376;53.356;-1.748;2023-04-08T00:11:17;100330.78;;;5.30;80.32
69257;BME280;56376;53.356;-1.748;2023-04-08T00:13:43;100335.97;;;5.29;80.54
69257;BME280;56376;53.356;-1.748;2023-04-08T00:16:08;100327.38;;;5.22;81.21
69257;BME280;56376;53.356;-1.748;2023-04-08T00:18:33;100325.66;;;5.19;80.95
69257;BME280;56376;53.356;-1.748;2023-04-08T00:20:59;100323.03;;;5.13;80.99
69257;BME280;56376;53.356;-1.748;2023-04-08T00:23:24;100324.78;;;5.05;81.06
69257;BME280;56376;53.356;-1.748;2023-04-08T00:25:50;100318.75;;;4.97;81.51
69257;BME280;56376;53.356;-1.748;2023-04-08T00:28:15;100329.13;;;4.94;82.18
69257;BME280;56376;53.356;-1.748;2023-04-08T00:30:40;100327.41;;;4.90;82.23
69257;BME280;56376;53.356;-1.748;2023-04-08T00:33:06;100325.66;;;4.87;82.05
69257;BME280;56376;53.356;-1.748;2023-04-08T00:35:32;100325.66;;;4.83;82.85
69257;BME280;56376;53.356;-1.748;2023-04-08T00:37:58;100324.81;;;4.77;83.62
69257;BME280;56376;53.356;-1.748;2023-04-08T00:40:23;100321.38;;;4.66;84.30
69257;BME280;56376;53.356;-1.748;2023-04-08T00:42:48;100331.72;;;4.65;84.41
69257;BME280;56376;53.356;-1.748;2023-04-08T00:45:14;100328.25;;;4.61;84.49
69257;BME280;56376;53.356;-1.748;2023-04-08T00:47:40;100321.34;;;4.57;85.08
69257;BME280;56376;53.356;-1.748;2023-04-08T00:50:09;100327.38;;;4.58;85.35
69257;BME280;56376;53.356;-1.748;2023-04-08T00:52:35;100327.38;;;4.53;85.70
69257;BME280;56376;53.356;-1.748;2023-04-08T00:55:01;100329.09;;;4.51;85.33
69257;BME280;56376;53.356;-1.748;2023-04-08T00:57:27;100327.38;;;4.47;84.73
69257;BME280;56376;53.356;-1.748;2023-04-08T00:59:52;100329.09;;;4.40;85.12
69257;BME280;56376;53.356;-1.748;2023-04-08T01:05:11;100335.13;;;4.34;86.07
69257;BME280;56376;53.356;-1.748;2023-04-08T01:07:44;100339.41;;;4.32;86.42
69257;BME280;56376;53.356;-1.748;2023-04-08T01:10:21;100329.94;;;4.28;86.64
69257;BME280;56376;53.356;-1.748;2023-04-08T01:12:51;100337.72;;;4.28;86.48
69257;BME280;56376;53.356;-1.748;2023-04-08T01:15:18;100337.66;;;4.25;86.43
69257;BME280;56376;53.356;-1.748;2023-04-08T01:17:44;100341.13;;;4.21;86.39
69257;BME280;56376;53.356;-1.748;2023-04-08T01:20:12;100346.28;;;4.20;86.68
69257;BME280;56376;53.356;-1.748;2023-04-08T01:25:48;100349.72;;;4.12;87.12
69257;BME280;56376;53.356;-1.748;2023-04-08T01:28:16;100349.69;;;4.09;87.74
69257;BME280;56376;53.356;-1.748;2023-04-08T01:30:43;100350.53;;;4.05;87.68
69257;BME280;56376;53.356;-1.748;2023-04-08T01:33:11;100347.97;;;4.01;87.21
69257;BME280;56376;53.356;-1.748;2023-04-08T01:35:37;100351.38;;;3.94;87.76
69257;BME280;56376;53.356;-1.748;2023-04-08T01:38:06;100342.75;;;3.88;87.67
69257;BME280;56376;53.356;-1.748;2023-04-08T01:40:33;100345.28;;;3.82;87.80
69257;BME280;56376;53.356;-1.748;2023-04-08T01:43:00;100344.41;;;3.80;87.97
69257;BME280;56376;53.356;-1.748;2023-04-08T01:45:27;100352.16;;;3.77;87.87
69257;BME280;56376;53.356;-1.748;2023-04-08T01:47:55;100352.16;;;3.77;88.04
69257;BME280;56376;53.356;-1.748;2023-04-08T01:50:22;100356.47;;;3.74;88.06
69257;BME280;56376;53.356;-1.748;2023-04-08T01:52:50;100352.13;;;3.69;88.41
69257;BME280;56376;53.356;-1.748;2023-04-08T01:55:18;100358.13;;;3.67;88.23
69257;BME280;56376;53.356;-1.748;2023-04-08T01:57:48;100347.81;;;3.64;88.79
69257;BME280;56376;53.356;-1.748;2023-04-08T02:00:18;100356.38;;;3.60;88.81
69257;BME280;56376;53.356;-1.748;2023-04-08T02:02:45;100349.50;;;3.59;89.54
69257;BME280;56376;53.356;-1.748;2023-04-08T02:05:11;100340.84;;;3.55;89.17
69257;BME280;56376;53.356;-1.748;2023-04-08T02:07:37;100346.03;;;3.54;88.88
69257;BME280;56376;53.356;-1.748;2023-04-08T02:10:03;100360.66;;;3.52;89.01
69257;BME280;56376;53.356;-1.748;2023-04-08T02:12:28;100348.56;;;3.46;88.47
69257;BME280;56376;53.356;-1.748;2023-04-08T02:14:54;100348.53;;;3.44;88.69
69257;BME280;56376;53.356;-1.748;2023-04-08T02:17:38;100348.53;;;3.41;89.58
69257;BME280;56376;53.356;-1.748;2023-04-08T02:20:06;100363.16;;;3.39;89.94
69257;BME280;56376;53.356;-1.748;2023-04-08T02:22:43;100361.41;;;3.37;90.16
69257;BME280;56376;53.356;-1.748;2023-04-08T02:25:15;100355.38;;;3.35;89.73
69257;BME280;56376;53.356;-1.748;2023-04-08T02:27:43;100363.97;;;3.31;89.40
69257;BME280;56376;53.356;-1.748;2023-04-08T02:30:11;100367.41;;;3.28;89.38
69257;BME280;56376;53.356;-1.748;2023-04-08T02:32:37;100361.31;;;3.21;89.18
69257;BME280;56376;53.356;-1.748;2023-04-08T02:35:04;100364.72;;;3.16;89.25
69257;BME280;56376;53.356;-1.748;2023-04-08T02:37:31;100364.72;;;3.13;89.24
69257;BME280;56376;53.356;-1.748;2023-04-08T02:39:57;100356.09;;;3.11;88.85
69257;BME280;56376;53.356;-1.748;2023-04-08T02:42:22;100362.06;;;3.07;89.33
69257;BME280;56376;53.356;-1.748;2023-04-08T02:44:48;100370.66;;;3.04;89.71
69257;BME280;56376;53.356;-1.748;2023-04-08T02:47:13;100369.78;;;3.00;89.50
69257;BME280;56376;53.356;-1.748;2023-04-08T02:49:39;100367.16;;;2.96;90.10
69257;BME280;56376;53.356;-1.748;2023-04-08T02:52:04;100368.81;;;2.92;90.05
69257;BME280;56376;53.356;-1.748;2023-04-08T02:54:29;100373.16;;;2.93;90.37
69257;BME280;56376;53.356;-1.748;2023-04-08T02:56:55;100372.28;;;2.94;90.89
69257;BME280;56376;53.356;-1.748;2023-04-08T02:59:20;100368.84;;;2.94;91.24
69257;BME280;56376;53.356;-1.748;2023-04-08T03:01:46;100373.19;;;2.95;91.37
69257;BME280;56376;53.356;-1.748;2023-04-08T03:04:11;100372.31;;;2.93;91.90
69257;BME280;56376;53.356;-1.748;2023-04-08T03:06:37;100373.97;;;2.89;92.06
69257;BME280;56376;53.356;-1.748;2023-04-08T03:09:02;100378.25;;;2.87;92.00
69257;BME280;56376;53.356;-1.748;2023-04-08T03:11:27;100379.97;;;2.87;92.10
69257;BME280;56376;53.356;-1.748;2023-04-08T03:13:53;100391.16;;;2.87;92.19
69257;BME280;56376;53.356;-1.748;2023-04-08T03:16:18;100381.69;;;2.86;92.50
69257;BME280;56376;53.356;-1.748;2023-04-08T03:18:44;100393.72;;;2.84;92.25
69257;BME280;56376;53.356;-1.748;2023-04-08T03:21:09;100391.97;;;2.80;91.78
69257;BME280;56376;53.356;-1.748;2023-04-08T03:23:34;100397.09;;;2.75;91.81
69257;BME280;56376;53.356;-1.748;2023-04-08T03:26:00;100397.00;;;2.69;91.21
69257;BME280;56376;53.356;-1.748;2023-04-08T03:28:25;100401.34;;;2.70;90.52
69257;BME280;56376;53.356;-1.748;2023-04-08T03:30:51;100403.88;;;2.66;90.22
69257;BME280;56376;53.356;-1.748;2023-04-08T03:33:16;100402.09;;;2.62;90.72
69257;BME280;56376;53.356;-1.748;2023-04-08T03:35:41;100397.78;;;2.57;90.81
69257;BME280;56376;53.356;-1.748;2023-04-08T03:38:07;100399.44;;;2.52;90.94
69257;BME280;56376;53.356;-1.748;2023-04-08T03:40:32;100395.13;;;2.50;91.29
69257;BME280;56376;53.356;-1.748;2023-04-08T03:42:58;100394.22;;;2.45;91.15
69257;BME280;56376;53.356;-1.748;2023-04-08T03:45:23;100392.47;;;2.44;91.32
69257;BME280;56376;53.356;-1.748;2023-04-08T03:47:48;100395.03;;;2.44;92.13
69257;BME280;56376;53.356;-1.748;2023-04-08T03:50:14;100395.06;;;2.45;92.72
69257;BME280;56376;53.356;-1.748;2023-04-08T03:52:40;100393.34;;;2.46;92.86
69257;BME280;56376;53.356;-1.748;2023-04-08T03:55:05;100395.06;;;2.45;92.22
69257;BME280;56376;53.356;-1.748;2023-04-08T03:57:30;100394.22;;;2.46;92.36
69257;BME280;56376;53.356;-1.748;2023-04-08T03:59:56;100398.47;;;2.44;92.83
69257;BME280;56376;53.356;-1.748;2023-04-08T04:02:22;100395.03;;;2.42;93.04
69257;BME280;56376;53.356;-1.748;2023-04-08T04:04:47;100393.25;;;2.36;93.36
69257;BME280;56376;53.356;-1.748;2023-04-08T04:07:12;100397.50;;;2.33;93.48
69257;BME280;56376;53.356;-1.748;2023-04-08T04:09:38;100406.13;;;2.32;93.43
69257;BME280;56376;53.356;-1.748;2023-04-08T04:12:03;100392.34;;;2.30;93.37
69257;BME280;56376;53.356;-1.748;2023-04-08T04:14:28;100403.47;;;2.29;93.23
69257;BME280;56376;53.356;-1.748;2023-04-08T04:16:54;100408.56;;;2.24;93.07
69257;BME280;56376;53.356;-1.748;2023-04-08T04:19:19;100405.94;;;2.18;93.05
69257;BME280;56376;53.356;-1.748;2023-04-08T04:21:44;100403.31;;;2.16;92.89
69257;BME280;56376;53.356;-1.748;2023-04-08T04:24:10;100408.44;;;2.13;92.98
69257;BME280;56376;53.356;-1.748;2023-04-08T04:26:35;100398.16;;;2.13;92.90
69257;BME280;56376;53.356;-1.748;2023-04-08T04:29:00;100397.28;;;2.13;93.60
69257;BME280;56376;53.356;-1.748;2023-04-08T04:31:26;100408.44;;;2.13;93.26
69257;BME280;56376;53.356;-1.748;2023-04-08T04:33:51;100397.25;;;2.10;93.74
69257;BME280;56376;53.356;-1.748;2023-04-08T04:36:17;100403.22;;;2.04;94.18
69257;BME280;56376;53.356;-1.748;2023-04-08T04:38:43;100403.16;;;2.00;93.85
69257;BME280;56376;53.356;-1.748;2023-04-08T04:41:09;100416.84;;;1.97;93.77
69257;BME280;56376;53.356;-1.748;2023-04-08T04:43:35;100407.38;;;1.96;94.24
69257;BME280;56376;53.356;-1.748;2023-04-08T04:46:00;100405.66;;;1.95;94.42
69257;BME280;56376;53.356;-1.748;2023-04-08T04:48:28;100418.47;;;1.90;94.78
69257;BME280;56376;53.356;-1.748;2023-04-08T04:50:58;100404.69;;;1.85;93.76
69257;BME280;56376;53.356;-1.748;2023-04-08T04:53:24;100406.38;;;1.85;93.46
69257;BME280;56376;53.356;-1.748;2023-04-08T04:55:49;100410.69;;;1.84;94.08
69257;BME280;56376;53.356;-1.748;2023-04-08T04:58:15;100410.69;;;1.84;94.40
69257;BME280;56376;53.356;-1.748;2023-04-08T05:00:41;100408.03;;;1.81;94.97
69257;BME280;56376;53.356;-1.748;2023-04-08T05:03:06;100414.09;;;1.82;94.76
69257;BME280;56376;53.356;-1.748;2023-04-08T05:05:32;100418.38;;;1.83;94.46
69257;BME280;56376;53.356;-1.748;2023-04-08T05:07:57;100423.53;;;1.83;95.37
69257;BME280;56376;53.356;-1.748;2023-04-08T05:10:22;100425.22;;;1.81;95.78
69257;BME280;56376;53.356;-1.748;2023-04-08T05:12:48;100420.06;;;1.81;95.37
69257;BME280;56376;53.356;-1.748;2023-04-08T05:15:13;100428.63;;;1.77;95.07
69257;BME280;56376;53.356;-1.748;2023-04-08T05:17:38;100423.44;;;1.75;96.06
69257;BME280;56376;53.356;-1.748;2023-04-08T05:20:05;100425.97;;;1.73;96.71
69257;BME280;56376;53.356;-1.748;2023-04-08T05:22:30;100431.13;;;1.72;96.80
69257;BME280;56376;53.356;-1.748;2023-04-08T05:24:56;100436.25;;;1.70;96.94
69257;BME280;56376;53.356;-1.748;2023-04-08T05:27:21;100437.91;;;1.68;97.21
69257;BME280;56376;53.356;-1.748;2023-04-08T05:29:47;100437.91;;;1.67;97.07
69257;BME280;56376;53.356;-1.748;2023-04-08T05:32:12;100440.47;;;1.65;97.28
69257;BME280;56376;53.356;-1.748;2023-04-08T05:34:38;100444.75;;;1.65;97.42
69257;BME280;56376;53.356;-1.748;2023-04-08T05:37:03;100440.47;;;1.65;97.30
69257;BME280;56376;53.356;-1.748;2023-04-08T05:39:28;100445.59;;;1.65;96.90
69257;BME280;56376;53.356;-1.748;2023-04-08T05:41:54;100447.28;;;1.63;97.36
69257;BME280;56376;53.356;-1.748;2023-04-08T05:44:20;100452.44;;;1.63;97.08
69257;BME280;56376;53.356;-1.748;2023-04-08T05:46:45;100454.19;;;1.64;97.92
69257;BME280;56376;53.356;-1.748;2023-04-08T05:49:11;100450.75;;;1.65;98.17
69257;BME280;56376;53.356;-1.748;2023-04-08T05:51:37;100454.22;;;1.67;98.40
69257;BME280;56376;53.356;-1.748;2023-04-08T05:54:03;100468.88;;;1.70;98.67
69257;BME280;56376;53.356;-1.748;2023-04-08T05:56:28;100461.09;;;1.68;98.79
69257;BME280;56376;53.356;-1.748;2023-04-08T05:58:56;100455.91;;;1.64;98.76
69257;BME280;56376;53.356;-1.748;2023-04-08T06:01:21;100459.34;;;1.66;98.65
69257;BME280;56376;53.356;-1.748;2023-04-08T06:03:47;100463.63;;;1.65;98.39
69257;BME280;56376;53.356;-1.748;2023-04-08T06:06:12;100469.66;;;1.64;98.33
69257;BME280;56376;53.356;-1.748;2023-04-08T06:08:38;100471.50;;;1.76;100.00
69257;BME280;56376;53.356;-1.748;2023-04-08T06:11:03;100469.00;;;1.79;100.00
69257;BME280;56376;53.356;-1.748;2023-04-08T06:13:29;100466.41;;;1.78;100.00
69257;BME280;56376;53.356;-1.748;2023-04-08T06:15:55;100478.38;;;1.76;100.00
69257;BME280;56376;53.356;-1.748;2023-04-08T06:18:20;100477.44;;;1.70;100.00
69257;BME280;56376;53.356;-1.748;2023-04-08T06:20:46;100484.34;;;1.73;100.00
69257;BME280;56376;53.356;-1.748;2023-04-08T06:23:11;100479.22;;;1.73;100.00
69257;BME280;56376;53.356;-1.748;2023-04-08T06:25:37;100477.50;;;1.73;100.00
69257;BME280;56376;53.356;-1.748;2023-04-08T06:28:02;100476.66;;;1.76;100.00
69257;BME280;56376;53.356;-1.748;2023-04-08T06:30:28;100485.34;;;1.83;100.00
69257;BME280;56376;53.356;-1.748;2023-04-08T06:32:53;100484.50;;;1.84;100.00
69257;BME280;56376;53.356;-1.748;2023-04-08T06:35:19;100489.72;;;1.88;100.00
69257;BME280;56376;53.356;-1.748;2023-04-08T06:37:44;100487.22;;;1.93;100.00
69257;BME280;56376;53.356;-1.748;2023-04-08T06:40:10;100485.59;;;2.01;100.00
69257;BME280;56376;53.356;-1.748;2023-04-08T06:42:35;100490.94;;;2.12;100.00
69257;BME280;56376;53.356;-1.748;2023-04-08T06:45:03;100494.47;;;2.22;100.00
69257;BME280;56376;53.356;-1.748;2023-04-08T06:47:29;100487.66;;;2.27;100.00
69257;BME280;56376;53.356;-1.748;2023-04-08T06:49:54;100494.66;;;2.35;100.00
69257;BME280;56376;53.356;-1.748;2023-04-08T06:52:19;100492.25;;;2.48;100.00
69257;BME280;56376;53.356;-1.748;2023-04-08T06:54:45;100497.50;;;2.58;100.00
69257;BME280;56376;53.356;-1.748;2023-04-08T06:57:11;100503.53;;;2.59;100.00
69257;BME280;56376;53.356;-1.748;2023-04-08T06:59:36;100503.59;;;2.62;100.00
69257;BME280;56376;53.356;-1.748;2023-04-08T07:02:02;100508.78;;;2.67;100.00
69257;BME280;56376;53.356;-1.748;2023-04-08T07:04:27;100511.44;;;2.74;100.00
69257;BME280;56376;53.356;-1.748;2023-04-08T07:06:52;100513.25;;;2.80;100.00
69257;BME280;56376;53.356;-1.748;2023-04-08T07:09:18;100505.59;;;2.89;100.00
69257;BME280;56376;53.356;-1.748;2023-04-08T07:11:43;100516.03;;;3.01;100.00
69257;BME280;56376;53.356;-1.748;2023-04-08T07:14:08;100513.56;;;3.11;100.00
69257;BME280;56376;53.356;-1.748;2023-04-08T07:16:34;100505.00;;;3.16;100.00
69257;BME280;56376;53.356;-1.748;2023-04-08T07:18:59;100515.38;;;3.21;100.00
69257;BME280;56376;53.356;-1.748;2023-04-08T07:21:26;100512.00;;;3.30;100.00
69257;BME280;56376;53.356;-1.748;2023-04-08T07:23:51;100510.38;;;3.42;100.00
69257;BME280;56376;53.356;-1.748;2023-04-08T07:26:16;100509.63;;;3.54;100.00
69257;BME280;56376;53.356;-1.748;2023-04-08T07:28:42;100514.91;;;3.66;100.00
69257;BME280;56376;53.356;-1.748;2023-04-08T07:31:09;100514.09;;;3.74;100.00
69257;BME280;56376;53.356;-1.748;2023-04-08T07:33:35;100518.44;;;3.79;100.00
69257;BME280;56376;53.356;-1.748;2023-04-08T07:36:00;100513.25;;;3.79;100.00
69257;BME280;56376;53.356;-1.748;2023-04-08T07:38:26;100520.22;;;3.88;100.00
69257;BME280;56376;53.356;-1.748;2023-04-08T07:40:52;100515.97;;;3.93;100.00
69257;BME280;56376;53.356;-1.748;2023-04-08T07:43:17;100531.50;;;3.99;100.00
69257;BME280;56376;53.356;-1.748;2023-04-08T07:45:43;100524.63;;;4.04;100.00
69257;BME280;56376;53.356;-1.748;2023-04-08T07:48:08;100519.53;;;4.15;100.00
69257;BME280;56376;53.356;-1.748;2023-04-08T07:50:35;100514.38;;;4.23;100.00
69257;BME280;56376;53.356;-1.748;2023-04-08T07:53:02;100519.63;;;4.33;100.00
69257;BME280;56376;53.356;-1.748;2023-04-08T07:55:32;100523.16;;;4.46;100.00
69257;BME280;56376;53.356;-1.748;2023-04-08T07:57:58;100532.66;;;4.55;100.00
69257;BME280;56376;53.356;-1.748;2023-04-08T08:00:23;100528.38;;;4.65;100.00
69257;BME280;56376;53.356;-1.748;2023-04-08T08:02:48;100531.00;;;4.78;100.00
69257;BME280;56376;53.356;-1.748;2023-04-08T08:05:14;100526.75;;;4.96;100.00
69257;BME280;56376;53.356;-1.748;2023-04-08T08:07:39;100524.19;;;5.10;100.00
69257;BME280;56376;53.356;-1.748;2023-04-08T08:10:05;100527.66;;;5.29;100.00
69257;BME280;56376;53.356;-1.748;2023-04-08T08:12:31;100526.81;;;5.47;100.00
69257;BME280;56376;53.356;-1.748;2023-04-08T08:14:56;100521.63;;;5.67;100.00
69257;BME280;56376;53.356;-1.748;2023-04-08T08:17:23;100525.97;;;5.83;100.00
69257;BME280;56376;53.356;-1.748;2023-04-08T08:19:49;100532.88;;;5.96;100.00
69257;BME280;56376;53.356;-1.748;2023-04-08T08:22:15;100531.97;;;6.10;100.00
69257;BME280;56376;53.356;-1.748;2023-04-08T08:24:41;100524.19;;;6.20;100.00
69257;BME280;56376;53.356;-1.748;2023-04-08T08:27:09;100530.22;;;6.38;100.00
69257;BME280;56376;53.356;-1.748;2023-04-08T08:29:35;100537.06;;;6.56;100.00
69257;BME280;56376;53.356;-1.748;2023-04-08T08:32:01;100534.34;;;6.77;100.00
69257;BME280;56376;53.356;-1.748;2023-04-08T08:34:28;100535.16;;;6.96;100.00
69257;BME280;56376;53.356;-1.748;2023-04-08T08:36:53;100531.59;;;7.09;100.00
69257;BME280;56376;53.356;-1.748;2023-04-08T08:39:18;100532.34;;;7.25;100.00
69257;BME280;56376;53.356;-1.748;2023-04-08T08:41:44;100533.06;;;7.46;100.00
69257;BME280;56376;53.356;-1.748;2023-04-08T08:44:10;100525.06;;;7.70;100.00
69257;BME280;56376;53.356;-1.748;2023-04-08T08:46:44;100530.13;;;7.89;100.00
69257;BME280;56376;53.356;-1.748;2023-04-08T08:49:11;100527.31;;;8.09;100.00
69257;BME280;56376;53.356;-1.748;2023-04-08T08:51:39;100527.94;;;8.32;100.00
69257;BME280;56376;53.356;-1.748;2023-04-08T08:54:05;100526.00;;;8.51;100.00
69257;BME280;56376;53.356;-1.748;2023-04-08T08:56:32;100528.41;;;8.68;100.00
69257;BME280;56376;53.356;-1.748;2023-04-08T08:58:58;100532.56;;;8.84;99.61
69257;BME280;56376;53.356;-1.748;2023-04-08T09:01:31;100527.09;;;9.03;98.57
69257;BME280;56376;53.356;-1.748;2023-04-08T09:04:15;100525.97;;;9.19;96.44
69257;BME280;56376;53.356;-1.748;2023-04-08T09:06:43;100527.44;;;9.37;95.01
69257;BME280;56376;53.356;-1.748;2023-04-08T09:09:09;100539.31;;;9.58;94.41
69257;BME280;56376;53.356;-1.748;2023-04-08T09:11:37;100524.25;;;9.74;92.07
69257;BME280;56376;53.356;-1.748;2023-04-08T09:14:10;100539.69;;;9.88;90.48
69257;BME280;56376;53.356;-1.748;2023-04-08T09:16:42;100533.34;;;10.01;89.90
69257;BME280;56376;53.356;-1.748;2023-04-08T09:19:09;100523.63;;;10.09;89.39
69257;BME280;56376;53.356;-1.748;2023-04-08T09:21:35;100528.53;;;10.26;89.75
69257;BME280;56376;53.356;-1.748;2023-04-08T09:24:00;100517.00;;;10.38;90.52
69257;BME280;56376;53.356;-1.748;2023-04-08T09:26:26;100516.06;;;10.42;87.34
69257;BME280;56376;53.356;-1.748;2023-04-08T09:29:01;100522.88;;;10.51;86.95
69257;BME280;56376;53.356;-1.748;2023-04-08T09:31:29;100523.53;;;10.60;86.80
69257;BME280;56376;53.356;-1.748;2023-04-08T09:34:00;100528.59;;;10.68;86.19
69257;BME280;56376;53.356;-1.748;2023-04-08T09:36:28;100524.94;;;10.77;84.49
69257;BME280;56376;53.356;-1.748;2023-04-08T09:38:54;100523.88;;;10.86;84.20
69257;BME280;56376;53.356;-1.748;2023-04-08T09:41:21;100522.91;;;10.90;83.83
69257;BME280;56376;53.356;-1.748;2023-04-08T09:43:49;100515.06;;;10.90;83.27
69257;BME280;56376;53.356;-1.748;2023-04-08T09:46:16;100522.72;;;10.99;83.65
69257;BME280;56376;53.356;-1.748;2023-04-08T09:48:51;100519.06;;;11.06;82.19
69257;BME280;56376;53.356;-1.748;2023-04-08T09:51:21;100525.69;;;11.21;81.62
69257;BME280;56376;53.356;-1.748;2023-04-08T09:53:54;100531.44;;;11.37;81.29
69257;BME280;56376;53.356;-1.748;2023-04-08T09:56:21;100522.28;;;11.55;80.69
69257;BME280;56376;53.356;-1.748;2023-04-08T09:59:02;100518.56;;;11.65;80.51
69257;BME280;56376;53.356;-1.748;2023-04-08T10:01:38;100521.69;;;11.79;79.27
69257;BME280;56376;53.356;-1.748;2023-04-08T10:04:07;100515.34;;;11.89;79.08
69257;BME280;56376;53.356;-1.748;2023-04-08T10:06:34;100514.03;;;12.06;77.72
69257;BME280;56376;53.356;-1.748;2023-04-08T10:09:01;100508.34;;;12.23;77.61
69257;BME280;56376;53.356;-1.748;2023-04-08T10:11:29;100509.69;;;12.38;76.40
69257;BME280;56376;53.356;-1.748;2023-04-08T10:13:55;100511.91;;;12.51;75.17
69257;BME280;56376;53.356;-1.748;2023-04-08T10:16:22;100506.19;;;12.68;73.01
69257;BME280;56376;53.356;-1.748;2023-04-08T10:18:49;100513.69;;;12.81;71.60
69257;BME280;56376;53.356;-1.748;2023-04-08T10:21:37;100504.75;;;12.86;69.94
69257;BME280;56376;53.356;-1.748;2023-04-08T10:24:09;100504.56;;;12.92;67.58
69257;BME280;56376;53.356;-1.748;2023-04-08T10:26:38;100509.06;;;12.89;65.90
69257;BME280;56376;53.356;-1.748;2023-04-08T10:31:53;100507.53;;;12.82;65.18
69257;BME280;56376;53.356;-1.748;2023-04-08T10:34:23;100502.38;;;12.78;65.33
69257;BME280;56376;53.356;-1.748;2023-04-08T10:36:53;100497.97;;;12.79;65.43
69257;BME280;56376;53.356;-1.748;2023-04-08T10:39:19;100493.66;;;12.78;65.86
69257;BME280;56376;53.356;-1.748;2023-04-08T10:41:47;100487.59;;;12.76;64.58
69257;BME280;56376;53.356;-1.748;2023-04-08T10:44:21;100490.22;;;12.76;65.12
69257;BME280;56376;53.356;-1.748;2023-04-08T10:46:48;100495.25;;;12.82;64.57
69257;BME280;56376;53.356;-1.748;2023-04-08T10:49:15;100490.81;;;12.86;64.27
69257;BME280;56376;53.356;-1.748;2023-04-08T10:51:41;100489.75;;;12.91;65.00
69257;BME280;56376;53.356;-1.748;2023-04-08T10:54:09;100485.94;;;13.02;64.19
69257;BME280;56376;53.356;-1.748;2023-04-08T10:56:35;100479.47;;;13.13;63.83
69257;BME280;56376;53.356;-1.748;2023-04-08T10:59:02;100476.53;;;13.23;63.57
69257;BME280;56376;53.356;-1.748;2023-04-08T11:01:37;100478.94;;;13.30;62.57
69257;BME280;56376;53.356;-1.748;2023-04-08T11:04:09;100477.13;;;13.32;61.48
69257;BME280;56376;53.356;-1.748;2023-04-08T11:06:36;100476.16;;;13.35;61.16
69257;BME280;56376;53.356;-1.748;2023-04-08T11:09:02;100464.59;;;13.40;59.61
69257;BME280;56376;53.356;-1.748;2023-04-08T11:11:29;100473.03;;;13.50;59.50
69257;BME280;56376;53.356;-1.748;2023-04-08T11:13:55;100464.81;;;13.61;57.78
69257;BME280;56376;53.356;-1.748;2023-04-08T11:16:21;100470.44;;;13.75;55.39
69257;BME280;56376;53.356;-1.748;2023-04-08T11:18:47;100462.97;;;13.88;52.93
69257;BME280;56376;53.356;-1.748;2023-04-08T11:21:14;100468.72;;;13.99;52.75
69257;BME280;56376;53.356;-1.748;2023-04-08T11:23:41;100466.69;;;14.07;51.94
69257;BME280;56376;53.356;-1.748;2023-04-08T11:26:06;100454.41;;;14.08;50.56
69257;BME280;56376;53.356;-1.748;2023-04-08T11:28:33;100469.25;;;14.09;48.60
69257;BME280;56376;53.356;-1.748;2023-04-08T11:30:59;100468.41;;;14.09;46.88
69257;BME280;56376;53.356;-1.748;2023-04-08T11:33:29;100470.97;;;14.10;46.97
69257;BME280;56376;53.356;-1.748;2023-04-08T11:35:55;100474.16;;;14.18;46.26
69257;BME280;56376;53.356;-1.748;2023-04-08T11:38:21;100468.59;;;14.27;45.79
69257;BME280;56376;53.356;-1.748;2023-04-08T11:40:58;100467.50;;;14.33;46.81
69257;BME280;56376;53.356;-1.748;2023-04-08T11:43:24;100469.03;;;14.39;48.02
69257;BME280;56376;53.356;-1.748;2023-04-08T11:45:50;100473.84;;;14.51;49.41
69257;BME280;56376;53.356;-1.748;2023-04-08T11:48:16;100467.25;;;14.64;49.35
69257;BME280;56376;53.356;-1.748;2023-04-08T11:50:43;100468.66;;;14.73;49.10
69257;BME280;56376;53.356;-1.748;2023-04-08T11:53:27;100472.66;;;14.83;47.37
69257;BME280;56376;53.356;-1.748;2023-04-08T11:55:52;100468.75;;;14.93;46.39
69257;BME280;56376;53.356;-1.748;2023-04-08T11:58:18;100474.38;;;15.06;47.91
69257;BME280;56376;53.356;-1.748;2023-04-08T12:00:43;100464.22;;;15.19;48.34
69257;BME280;56376;53.356;-1.748;2023-04-08T12:03:10;100464.56;;;15.32;46.44
69257;BME280;56376;53.356;-1.748;2023-04-08T12:05:35;100463.28;;;15.42;44.14
69257;BME280;56376;53.356;-1.748;2023-04-08T12:08:01;100457.91;;;15.45;42.98
69257;BME280;56376;53.356;-1.748;2023-04-08T12:10:26;100442.16;;;15.44;43.01
69257;BME280;56376;53.356;-1.748;2023-04-08T12:12:52;100458.03;;;15.42;43.94
69257;BME280;56376;53.356;-1.748;2023-04-08T12:15:17;100451.81;;;15.43;44.91
69257;BME280;56376;53.356;-1.748;2023-04-08T12:17:43;100453.66;;;15.41;45.65
69257;BME280;56376;53.356;-1.748;2023-04-08T12:20:09;100453.63;;;15.43;46.59
69257;BME280;56376;53.356;-1.748;2023-04-08T12:22:35;100466.31;;;15.53;48.10
69257;BME280;56376;53.356;-1.748;2023-04-08T12:25:01;100467.13;;;15.55;47.34
69257;BME280;56376;53.356;-1.748;2023-04-08T12:27:28;100453.16;;;15.53;47.19
69257;BME280;56376;53.356;-1.748;2023-04-08T12:29:54;100459.22;;;15.55;48.83
69257;BME280;56376;53.356;-1.748;2023-04-08T12:32:19;100457.25;;;15.61;49.41
69257;BME280;56376;53.356;-1.748;2023-04-08T12:34:46;100455.31;;;15.64;47.75
69257;BME280;56376;53.356;-1.748;2023-04-08T12:37:11;100451.66;;;15.68;47.22
69257;BME280;56376;53.356;-1.748;2023-04-08T12:39:37;100443.66;;;15.71;45.96
69257;BME280;56376;53.356;-1.748;2023-04-08T12:42:03;100445.38;;;15.72;46.39
69257;BME280;56376;53.356;-1.748;2023-04-08T12:44:29;100449.38;;;15.81;46.45
69257;BME280;56376;53.356;-1.748;2023-04-08T12:46:54;100441.09;;;15.90;44.87
69257;BME280;56376;53.356;-1.748;2023-04-08T12:49:20;100439.00;;;15.97;44.06
69257;BME280;56376;53.356;-1.748;2023-04-08T12:51:46;100442.09;;;16.07;43.42